createdAt,value
2023-03-07T00:01:43.429Z,99210.59
2023-03-07T00:06:36.274Z,99215.66
2023-03-07T00:11:30.218Z,99216.73
2023-03-07T00:16:25.312Z,99215.89
2023-03-07T00:21:20.629Z,99217.73
2023-03-07T00:26:14.915Z,99216.17
2023-03-07T00:31:10.718Z,99216.89
2023-03-07T00:36:06.381Z,99217.27
2023-03-07T00:41:00.859Z,99220.35
2023-03-07T00:45:53.873Z,99214.56
2023-03-07T00:50:47.121Z,99214.05
2023-03-07T00:55:40.153Z,99215.08
2023-03-07T01:00:34.994Z,99215.23
2023-03-07T01:05:27.649Z,99210.13
2023-03-07T01:10:21.171Z,99211.07
2023-03-07T01:15:13.820Z,99214.38
2023-03-07T01:20:07.678Z,99211.70
2023-03-07T01:25:01.259Z,99206.53
2023-03-07T01:29:54.159Z,99208.50
2023-03-07T01:34:46.879Z,99207.19
2023-03-07T01:39:40.082Z,99207.97
2023-03-07T01:45:03.896Z,99205.60
2023-03-07T01:50:17.819Z,99202.59
2023-03-07T01:55:29.527Z,99199.73
2023-03-07T02:00:29.920Z,99195.77
2023-03-07T02:05:38.165Z,99195.59
2023-03-07T02:10:32.909Z,99193.57
2023-03-07T02:15:26.528Z,99195.77
2023-03-07T02:20:35.392Z,99204.89
2023-03-07T02:26:02.383Z,99207.83
2023-03-07T02:31:20.748Z,99211.79
2023-03-07T02:42:09.993Z,99211.11
2023-03-07T02:47:13.554Z,99207.58
2023-03-07T02:52:06.969Z,99208.27
2023-03-07T02:57:24.958Z,99202.06
2023-03-07T03:02:59.759Z,99199.64
2023-03-07T03:08:54.187Z,99195.55
2023-03-07T03:20:20.292Z,99196.80
2023-03-07T03:25:47.484Z,99199.63
2023-03-07T03:30:46.089Z,99197.73
2023-03-07T03:35:40.772Z,99196.88
2023-03-07T03:41:41.818Z,99196.32
2023-03-07T03:47:52.985Z,99193.18
2023-03-07T03:54:03.637Z,99194.27
2023-03-07T03:59:29.794Z,99196.55
2023-03-07T04:54:10.925Z,99200.27
2023-03-07T05:06:13.412Z,99200.23
2023-03-07T05:11:53.638Z,99194.99
2023-03-07T05:17:53.958Z,99187.85
2023-03-07T05:41:20.761Z,99204.75
2023-03-07T05:46:13.533Z,99208.30
2023-03-07T05:51:09.876Z,99213.23
2023-03-07T05:56:02.814Z,99218.44
2023-03-07T06:00:56.099Z,99218.06
2023-03-07T06:05:52.210Z,99211.25
2023-03-07T06:10:45.143Z,99213.04
2023-03-07T06:15:37.883Z,99219.87
2023-03-07T06:20:32.463Z,99221.80
2023-03-07T06:25:25.767Z,99217.54
2023-03-07T06:30:18.721Z,99218.72
2023-03-07T06:35:11.604Z,99215.07
2023-03-07T06:40:06.465Z,99215.73
2023-03-07T06:45:00.664Z,99213.72
2023-03-07T06:49:55.764Z,99209.40
2023-03-07T06:54:48.874Z,99210.02
2023-03-07T06:59:42.422Z,99211.75
2023-03-07T07:04:36.119Z,99201.65
2023-03-07T07:09:29.965Z,99194.06
2023-03-07T07:14:23.569Z,99190.58
2023-03-07T07:19:16.797Z,99181.70
2023-03-07T07:24:13.609Z,99177.51
2023-03-07T07:29:06.633Z,99169.15
2023-03-07T07:34:00.188Z,99161.52
2023-03-07T07:38:53.992Z,99152.96
2023-03-07T07:43:50.091Z,99145.61
2023-03-07T07:48:48.643Z,99144.52
2023-03-07T07:53:41.536Z,99137.49
2023-03-07T07:58:34.328Z,99140.85
2023-03-07T08:03:28.077Z,99138.55
2023-03-07T08:08:21.333Z,99128.05
2023-03-07T08:13:15.424Z,99122.57
2023-03-07T08:18:08.296Z,99113.40
2023-03-07T08:23:01.006Z,99108.55
2023-03-07T08:27:55.287Z,99107.05
2023-03-07T08:32:56.635Z,99106.14
2023-03-07T08:37:50.719Z,99105.36
2023-03-07T08:42:46.835Z,99096.41
2023-03-07T08:47:39.640Z,99095.20
2023-03-07T08:52:33.324Z,99093.25
2023-03-07T08:57:26.002Z,99088.00
2023-03-07T09:02:18.684Z,99078.86
2023-03-07T09:07:11.322Z,99071.73
2023-03-07T09:12:04.098Z,99062.77
2023-03-07T09:16:57.265Z,99058.17
2023-03-07T09:21:50.086Z,99054.91
2023-03-07T09:26:45.627Z,99047.48
2023-03-07T09:31:38.385Z,99042.36
2023-03-07T09:36:31.153Z,99045.31
2023-03-07T09:42:08.670Z,99039.66
2023-03-07T09:47:14.482Z,99039.24
2023-03-07T09:52:19.223Z,99041.73
2023-03-07T09:57:55.319Z,99042.40
2023-03-07T10:03:16.469Z,99038.02
2023-03-07T10:08:16.566Z,99023.32
2023-03-07T10:13:29.490Z,99005.71
2023-03-07T10:18:26.109Z,99006.86
2023-03-07T10:23:31.107Z,99001.48
2023-03-07T10:28:28.285Z,98986.52
2023-03-07T10:33:49.418Z,98983.71
2023-03-07T10:38:50.846Z,98979.17
2023-03-07T10:43:45.485Z,98974.55
2023-03-07T10:48:42.643Z,98970.09
2023-03-07T10:53:41.682Z,98962.86
2023-03-07T10:58:36.753Z,98949.17
2023-03-07T11:03:29.321Z,98932.11
2023-03-07T11:08:33.515Z,98906.77
2023-03-07T11:13:26.445Z,98898.42
2023-03-07T11:18:31.419Z,98889.33
2023-03-07T11:23:31.652Z,98883.27
2023-03-07T11:29:27.391Z,98874.27
2023-03-07T11:34:37.433Z,98870.52
2023-03-07T11:39:38.650Z,98856.10
2023-03-07T11:44:54.325Z,98835.67
2023-03-07T11:50:06.675Z,98815.39
2023-03-07T11:55:24.275Z,98810.86
2023-03-07T12:00:29.281Z,98801.73
2023-03-07T12:05:27.941Z,98790.08
2023-03-07T12:10:47.439Z,98782.17
2023-03-07T12:15:55.472Z,98781.74
2023-03-07T12:21:07.045Z,98781.21
2023-03-07T12:26:05.277Z,98782.48
2023-03-07T12:31:16.090Z,98780.02
2023-03-07T12:36:13.941Z,98765.16
2023-03-07T12:41:20.045Z,98763.02
2023-03-07T12:46:55.878Z,98755.40
2023-03-07T12:51:55.516Z,98745.05
2023-03-07T12:57:36.260Z,98733.73
2023-03-07T13:03:08.522Z,98733.94
2023-03-07T13:08:03.021Z,98728.44
2023-03-07T13:12:55.681Z,98716.20
2023-03-07T13:17:48.613Z,98720.35
2023-03-07T13:22:41.208Z,98717.59
2023-03-07T13:27:42.936Z,98716.05
2023-03-07T13:32:54.469Z,98715.20
2023-03-07T13:38:09.543Z,98716.23
2023-03-07T13:43:25.635Z,98708.28
2023-03-07T13:48:29.979Z,98701.86
2023-03-07T13:53:54.806Z,98696.41
2023-03-07T13:58:48.582Z,98697.36
2023-03-07T14:04:17.867Z,98695.59
2023-03-07T14:09:21.327Z,98686.27
2023-03-07T14:14:45.690Z,98676.60
2023-03-07T14:20:00.129Z,98671.20
2023-03-07T14:25:19.163Z,98659.46
2023-03-07T14:30:34.182Z,98651.88
2023-03-07T14:35:44.101Z,98640.34
2023-03-07T14:41:07.783Z,98637.89
2023-03-07T14:46:19.784Z,98626.55
2023-03-07T14:51:25.798Z,98617.42
2023-03-07T14:56:29.189Z,98604.04
2023-03-07T15:01:22.081Z,98600.10
2023-03-07T15:06:18.048Z,98598.54
2023-03-07T15:11:17.832Z,98593.56
2023-03-07T15:16:16.997Z,98594.07
2023-03-07T15:21:19.375Z,98588.55
2023-03-07T15:26:21.286Z,98585.44
2023-03-07T15:31:15.457Z,98585.40
2023-03-07T15:36:11.529Z,98580.20
2023-03-07T15:41:29.902Z,98578.28
2023-03-07T15:46:31.720Z,98576.87
2023-03-07T15:51:28.075Z,98569.11
2023-03-07T15:56:34.509Z,98562.90
2023-03-07T16:01:28.633Z,98567.65
2023-03-07T16:06:42.140Z,98563.14
2023-03-07T16:11:37.635Z,98558.12
2023-03-07T16:16:32.403Z,98556.30
2023-03-07T16:21:26.375Z,98546.10
2023-03-07T16:26:22.945Z,98545.01
2023-03-07T16:31:19.408Z,98543.40
2023-03-07T16:36:14.071Z,98545.39
2023-03-07T16:41:18.034Z,98544.11
2023-03-07T16:46:19.303Z,98540.77
2023-03-07T16:51:26.144Z,98538.33
2023-03-07T16:56:35.856Z,98537.21
2023-03-07T17:01:29.030Z,98531.13
2023-03-07T17:06:30.473Z,98527.79
2023-03-07T17:11:30.679Z,98529.77
2023-03-07T17:16:23.655Z,98525.80
2023-03-07T17:21:19.450Z,98526.16
2023-03-07T17:26:23.461Z,98523.59
2023-03-07T17:31:16.202Z,98520.86
2023-03-07T17:36:12.831Z,98518.64
2023-03-07T17:41:06.201Z,98513.85
2023-03-07T17:45:58.904Z,98515.90
2023-03-07T17:50:51.606Z,98513.14
2023-03-07T17:55:44.268Z,98510.91
2023-03-07T18:00:37.482Z,98509.09
2023-03-07T18:05:30.147Z,98506.05
2023-03-07T18:10:23.981Z,98506.61
2023-03-07T18:15:19.407Z,98501.14
2023-03-07T18:20:13.253Z,98493.98
2023-03-07T18:25:18.252Z,98494.88
2023-03-07T18:30:12.741Z,98484.61
2023-03-07T18:35:08.196Z,98482.97
2023-03-07T18:40:01.670Z,98480.11
2023-03-07T18:45:08.357Z,98474.99
2023-03-07T18:50:19.967Z,98475.21
2023-03-07T18:55:24.538Z,98476.27
2023-03-07T19:00:49.928Z,98479.73
2023-03-07T19:06:17.091Z,98478.92
2023-03-07T19:11:30.235Z,98480.16
2023-03-07T19:17:02.628Z,98477.14
2023-03-07T19:22:51.807Z,98479.54
2023-03-07T19:28:13.088Z,98478.73
2023-03-07T19:33:11.981Z,98484.23
2023-03-07T19:38:11.017Z,98472.45
2023-03-07T19:48:50.058Z,98469.73
2023-03-07T19:53:49.485Z,98466.30
2023-03-07T19:59:11.556Z,98470.78
2023-03-07T20:04:18.973Z,98474.57
2023-03-07T20:09:32.593Z,98470.30
2023-03-07T20:14:53.635Z,98470.64
2023-03-07T20:19:58.961Z,98466.89
2023-03-07T20:24:57.862Z,98461.20
2023-03-07T20:29:50.630Z,98462.04
2023-03-07T20:34:43.936Z,98464.23
2023-03-07T20:39:43.895Z,98467.47
2023-03-07T20:44:36.789Z,98467.09
2023-03-07T20:49:29.672Z,98465.02
2023-03-07T20:54:25.149Z,98462.95
2023-03-07T20:59:19.720Z,98461.02
2023-03-07T21:04:15.841Z,98464.27
2023-03-07T21:09:13.822Z,98458.23
2023-03-07T21:14:07.276Z,98453.06
2023-03-07T21:19:05.612Z,98455.77
2023-03-07T21:23:58.735Z,98447.87
2023-03-07T21:28:52.777Z,98453.16
2023-03-07T21:33:48.411Z,98451.09
2023-03-07T21:38:45.521Z,98451.94
2023-03-07T21:43:38.468Z,98451.09
2023-03-07T21:48:31.974Z,98453.48
2023-03-07T21:53:28.084Z,98455.37
2023-03-07T21:58:26.914Z,98454.17
2023-03-07T22:03:22.965Z,98452.31
2023-03-07T22:08:20.522Z,98450.27
2023-03-07T22:13:13.316Z,98451.14
2023-03-07T22:18:06.178Z,98446.33
2023-03-07T22:22:58.939Z,98448.58
2023-03-07T22:27:52.188Z,98446.17
2023-03-07T22:32:47.757Z,98444.98
2023-03-07T22:37:41.933Z,98447.06
2023-03-07T22:42:35.588Z,98444.50
2023-03-07T22:47:29.496Z,98456.84
2023-03-07T22:52:24.711Z,98482.20
2023-03-07T22:57:19.991Z,98492.25
2023-03-07T23:02:13.171Z,98502.94
2023-03-07T23:07:08.549Z,98510.54
2023-03-07T23:12:05.547Z,98517.79
2023-03-07T23:16:58.612Z,98533.88
2023-03-07T23:21:56.496Z,98545.51
2023-03-07T23:26:54.963Z,98549.59
2023-03-07T23:31:48.024Z,98557.99
2023-03-07T23:36:41.122Z,98561.35
2023-03-07T23:41:34.090Z,98571.23
2023-03-07T23:46:31.661Z,98581.45
2023-03-07T23:51:24.713Z,98583.53
2023-03-07T23:56:18.438Z,98581.08
